Time;durP1;ratioP1;P1;durP2;ratioP2;P2;SDS_P1;SDS_P2;PMS_P1;PMS_P2;Temp;Humidity;BMP_temperature;BMP_pressure;BME280_temperature;BME280_humidity;BME280_pressure;Samples;Min_cycle;Max_cycle;Signal;HPM_P1;HPM_P2
2021/12/15 00:01:16;;;;;;;13.62;6.72;;;;;;;-0.01;100.00;100240.25;1766459;81;21419;-67
2021/12/15 00:03:44;;;;;;;14.20;7.85;;;;;;;-0.01;100.00;100242.45;1766193;81;21448;-67
2021/12/15 00:06:17;;;;;;;16.48;8.93;;;;;;;-0.02;100.00;100245.39;1742073;81;21006;-67
2021/12/15 00:08:49;;;;;;;13.18;8.43;;;;;;;0.00;100.00;100250.05;1766083;81;20967;-67
2021/12/15 00:11:20;;;;;;;15.07;8.73;;;;;;;0.03;100.00;100248.75;1741198;81;21047;-67
2021/12/15 00:13:50;;;;;;;19.30;9.83;;;;;;;0.01;100.00;100252.22;1765926;81;21689;-67
2021/12/15 00:16:24;;;;;;;24.12;11.73;;;;;;;-0.03;100.00;100247.78;1766468;81;20924;-66
2021/12/15 00:18:55;;;;;;;27.60;11.25;;;;;;;-0.09;100.00;100250.91;1766142;81;20928;-68
2021/12/15 00:21:24;;;;;;;15.43;8.53;;;;;;;-0.12;100.00;100252.73;1767560;81;20992;-67
2021/12/15 00:23:51;;;;;;;16.82;9.58;;;;;;;-0.13;100.00;100249.70;1742435;81;20947;-67
2021/12/15 00:26:20;;;;;;;19.67;9.88;;;;;;;-0.16;100.00;100247.46;1766366;81;20884;-68
2021/12/15 00:28:47;;;;;;;17.55;9.28;;;;;;;-0.18;100.00;100242.80;1765898;81;21456;-66
2021/12/15 00:31:17;;;;;;;18.80;10.15;;;;;;;-0.17;100.00;100241.75;1741990;81;21023;-68
2021/12/15 00:33:45;;;;;;;19.30;9.40;;;;;;;-0.19;100.00;100240.63;1742661;81;21117;-67
2021/12/15 00:36:14;;;;;;;13.03;8.75;;;;;;;-0.19;100.00;100242.50;1765998;81;21396;-68
2021/12/15 00:38:43;;;;;;;16.48;8.18;;;;;;;-0.18;100.00;100237.37;1766417;81;20923;-69
2021/12/15 00:41:12;;;;;;;14.23;7.62;;;;;;;-0.17;100.00;100248.53;1742965;81;21021;-68
2021/12/15 00:43:41;;;;;;;15.45;7.92;;;;;;;-0.23;100.00;100241.30;1766085;81;21032;-66
2021/12/15 00:46:09;;;;;;;18.17;9.20;;;;;;;-0.26;100.00;100246.11;1766173;81;21197;-67
2021/12/15 00:48:38;;;;;;;13.20;7.95;;;;;;;-0.26;100.00;100247.47;1765783;81;20995;-66
2021/12/15 00:51:07;;;;;;;17.20;8.45;;;;;;;-0.32;100.00;100244.34;1766070;81;20923;-67
2021/12/15 00:53:38;;;;;;;14.80;7.47;;;;;;;-0.33;100.00;100247.27;1766229;81;20996;-67
2021/12/15 00:56:05;;;;;;;17.57;7.95;;;;;;;-0.31;100.00;100249.23;1766114;81;20970;-67
2021/12/15 00:58:35;;;;;;;16.25;9.35;;;;;;;-0.31;100.00;100249.23;1766204;81;21046;-65
2021/12/15 01:01:04;;;;;;;17.27;9.28;;;;;;;-0.33;100.00;100248.11;1766182;81;21457;-66
2021/12/15 01:03:31;;;;;;;16.87;9.45;;;;;;;-0.34;100.00;100249.70;1766086;81;20947;-67
2021/12/15 01:06:06;;;;;;;16.27;8.93;;;;;;;-0.36;100.00;100247.22;1766232;81;21027;-66
2021/12/15 01:08:32;;;;;;;17.50;8.33;;;;;;;-0.33;100.00;100244.05;1765437;81;21421;-68
2021/12/15 01:11:12;;;;;;;13.72;6.70;;;;;;;-0.32;100.00;100236.73;1766384;81;21402;-67
2021/12/15 01:22:03;;;;;;;14.75;7.08;;;;;;;-0.41;100.00;100223.51;1766351;81;21405;-67
2021/12/15 01:24:33;;;;;;;14.60;8.03;;;;;;;-0.46;100.00;100222.56;1766649;81;21777;-67
2021/12/15 01:27:02;;;;;;;15.28;8.30;;;;;;;-0.50;100.00;100235.21;1742490;81;20908;-68
2021/12/15 01:29:29;;;;;;;13.83;8.38;;;;;;;-0.52;100.00;100238.67;1766797;81;20987;-67
2021/12/15 01:32:05;;;;;;;14.58;7.60;;;;;;;-0.54;100.00;100232.65;1766260;81;20940;-66
2021/12/15 01:34:34;;;;;;;14.15;8.15;;;;;;;-0.52;100.00;100217.52;1766142;81;20931;-66
2021/12/15 01:37:03;;;;;;;14.85;8.88;;;;;;;-0.52;100.00;100214.81;1742256;81;21033;-67
2021/12/15 01:39:31;;;;;;;17.25;9.58;;;;;;;-0.55;100.00;100210.70;1742252;81;20931;-67
2021/12/15 01:41:58;;;;;;;15.48;9.28;;;;;;;-0.56;100.00;100206.87;1766214;81;20924;-67
2021/12/15 01:47:02;;;;;;;22.05;11.35;;;;;;;-0.58;100.00;100212.48;1742255;81;21098;-68
2021/12/15 01:49:37;;;;;;;21.87;11.78;;;;;;;-0.58;100.00;100223.31;1762587;81;21080;-67
2021/12/15 01:52:26;;;;;;;20.32;11.35;;;;;;;-0.58;100.00;100221.96;1750706;82;21051;-68
2021/12/15 01:55:04;;;;;;;17.20;9.45;;;;;;;-0.56;100.00;100225.83;1744632;82;21498;-67
2021/12/15 01:57:34;;;;;;;26.42;12.23;;;;;;;-0.57;100.00;100226.86;1725795;82;20909;-67
2021/12/15 02:00:06;;;;;;;22.50;12.70;;;;;;;-0.57;100.00;100222.80;1745510;82;20956;-67
2021/12/15 02:02:36;;;;;;;26.68;15.23;;;;;;;-0.58;100.00;100224.67;1745093;82;21536;-67
2021/12/15 02:05:06;;;;;;;26.15;14.00;;;;;;;-0.57;100.00;100234.47;1745147;82;21422;-66
2021/12/15 02:07:34;;;;;;;18.37;10.98;;;;;;;-0.54;100.00;100232.65;1750747;82;20984;-68
2021/12/15 02:10:05;;;;;;;19.05;10.82;;;;;;;-0.50;100.00;100229.80;1750981;82;21414;-68
2021/12/15 02:12:39;;;;;;;11.28;7.22;;;;;;;-0.49;100.00;100240.08;1750534;82;20945;-68
2021/12/15 02:15:18;;;;;;;13.95;6.65;;;;;;;-0.52;100.00;100231.90;1742962;82;21425;-67
2021/12/15 02:17:50;;;;;;;12.80;7.37;;;;;;;-0.52;100.00;100233.77;1742129;82;20924;-67
2021/12/15 02:20:27;;;;;;;11.10;6.97;;;;;;;-0.54;100.00;100229.94;1744961;82;20967;-67
2021/12/15 02:22:55;;;;;;;10.32;5.92;;;;;;;-0.56;100.00;100223.92;1745178;82;22091;-68
2021/12/15 02:25:25;;;;;;;9.65;6.35;;;;;;;-0.58;100.00;100226.57;1726081;82;21003;-67
2021/12/15 02:27:54;;;;;;;9.58;6.03;;;;;;;-0.57;100.00;100221.45;1745049;82;22161;-67
2021/12/15 02:38:40;;;;;;;12.45;7.15;;;;;;;-0.50;100.00;100214.06;1744965;82;21516;-68
2021/12/15 02:41:19;;;;;;;17.95;9.35;;;;;;;-0.52;100.00;100207.53;1725898;82;21239;-68
2021/12/15 02:43:37;;;;;;;14.05;8.35;;;;;;;-0.53;100.00;100218.59;1743713;82;21218;-67
2021/12/15 02:46:05;;;;;;;14.95;8.18;;;;;;;-0.54;100.00;100222.34;1745022;82;21509;-68
2021/12/15 02:48:33;;;;;;;15.95;7.95;;;;;;;-0.56;100.00;100215.80;1744844;82;21062;-69
2021/12/15 02:51:04;;;;;;;15.10;8.53;;;;;;;-0.56;100.00;100218.50;1762343;81;21018;-67
2021/12/15 02:53:31;;;;;;;16.45;8.10;;;;;;;-0.54;100.00;100220.47;1766128;81;21066;-68
2021/12/15 02:56:00;;;;;;;19.02;9.15;;;;;;;-0.50;100.00;100226.25;1765981;81;21508;-69
2021/12/15 02:58:32;;;;;;;13.65;8.43;;;;;;;-0.51;100.00;100229.48;1742116;81;21133;-67
2021/12/15 03:01:01;;;;;;;14.28;7.45;;;;;;;-0.50;100.00;100231.67;1765772;81;21025;-68
2021/12/15 03:03:58;;;;;;;14.47;8.08;;;;;;;-0.48;100.00;100224.15;1765412;81;21499;-69
2021/12/15 03:06:15;;;;;;;19.37;9.05;;;;;;;-0.48;100.00;100221.96;1763007;81;21125;-67
2021/12/15 03:16:51;;;;;;;17.82;8.03;;;;;;;-0.50;100.00;100235.21;1766286;81;21472;-68
2021/12/15 03:19:18;;;;;;;16.52;9.73;;;;;;;-0.50;100.00;100233.02;1765971;81;22019;-68
2021/12/15 03:21:45;;;;;;;14.85;8.53;;;;;;;-0.46;100.00;100228.78;1765965;81;21492;-67
2021/12/15 03:24:18;;;;;;;12.58;7.22;;;;;;;-0.43;100.00;100222.94;1766074;81;21409;-68
2021/12/15 03:26:56;;;;;;;11.03;7.05;;;;;;;-0.41;100.00;100224.06;1766332;81;20955;-68
2021/12/15 03:37:54;;;;;;;12.85;7.67;;;;;;;-0.52;100.00;100235.96;1766065;81;20983;-67
2021/12/15 03:40:36;;;;;;;18.90;11.63;;;;;;;-0.54;100.00;100235.88;1765952;81;20924;-67
2021/12/15 03:43:01;;;;;;;16.55;9.58;;;;;;;-0.57;100.00;100240.39;1765404;81;21035;-67
2021/12/15 03:45:35;;;;;;;13.83;8.93;;;;;;;-0.63;100.00;100241.61;1765891;81;21120;-67
2021/12/15 03:48:09;;;;;;;20.68;10.00;;;;;;;-0.63;100.00;100239.42;1766258;81;21519;-66
2021/12/15 03:50:36;;;;;;;16.27;8.83;;;;;;;-0.66;100.00;100239.88;1759098;81;21009;-67
2021/12/15 03:53:04;;;;;;;15.43;8.00;;;;;;;-0.68;100.00;100244.72;1744848;82;20976;-67
2021/12/15 03:55:34;;;;;;;17.37;9.28;;;;;;;-0.67;100.00;100251.77;1744700;82;20980;-67
2021/12/15 03:58:01;;;;;;;13.90;8.50;;;;;;;-0.67;100.00;100249.90;1724356;82;21022;-68
2021/12/15 04:00:29;;;;;;;14.53;7.22;;;;;;;-0.65;100.00;100252.38;1725469;82;21560;-67
2021/12/15 04:02:56;;;;;;;16.35;9.50;;;;;;;-0.63;100.00;100255.66;1725794;82;21063;-67
2021/12/15 04:05:25;;;;;;;19.07;10.13;;;;;;;-0.64;100.00;100260.79;1725640;82;21005;-69
2021/12/15 04:07:57;;;;;;;17.17;8.63;;;;;;;-0.64;100.00;100258.92;1744665;82;21024;-67
2021/12/15 04:10:27;;;;;;;15.05;9.25;;;;;;;-0.67;100.00;100255.83;1745007;82;21143;-68
2021/12/15 04:12:55;;;;;;;17.07;10.15;;;;;;;-0.70;100.00;100260.34;1725802;82;21460;-68
2021/12/15 04:15:29;;;;;;;15.95;8.58;;;;;;;-0.71;100.00;100256.81;1750731;82;20924;-68
2021/12/15 04:18:02;;;;;;;19.47;11.63;;;;;;;-0.72;100.00;100259.74;1745282;82;21025;-64
2021/12/15 04:20:32;;;;;;;22.65;10.72;;;;;;;-0.75;100.00;100254.27;1744944;82;21166;-67
2021/12/15 04:23:00;;;;;;;22.25;10.43;;;;;;;-0.74;100.00;100259.45;1744912;82;20893;-67
2021/12/15 04:25:31;;;;;;;21.20;12.30;;;;;;;-0.75;100.00;100265.91;1750650;82;21024;-66
2021/12/15 04:28:08;;;;;;;22.17;8.50;;;;;;;-0.78;100.00;100271.77;1745290;82;21036;-67
2021/12/15 04:30:39;;;;;;;23.95;13.65;;;;;;;-0.81;100.00;100268.17;1744079;82;20996;-66
2021/12/15 04:33:13;;;;;;;23.67;11.75;;;;;;;-0.89;100.00;100271.98;1745047;82;21493;-67
2021/12/15 04:35:43;;;;;;;27.32;11.65;;;;;;;-0.96;100.00;100273.95;1725720;82;21161;-67
2021/12/15 04:38:12;;;;;;;32.88;16.48;;;;;;;-1.00;100.00;100276.28;1745051;82;21457;-67
2021/12/15 04:40:42;;;;;;;29.05;15.15;;;;;;;-1.02;100.00;100283.79;1744894;82;21422;-67
2021/12/15 04:43:11;;;;;;;26.00;12.78;;;;;;;-0.97;100.00;100283.11;1744952;82;20861;-68
2021/12/15 04:45:39;;;;;;;26.20;12.10;;;;;;;-0.99;100.00;100283.34;1744816;82;20952;-67
2021/12/15 04:48:08;;;;;;;25.45;15.10;;;;;;;-0.99;100.00;100293.35;1744847;82;21148;-67
2021/12/15 04:50:36;;;;;;;34.92;18.35;;;;;;;-0.98;100.00;100289.59;1752370;81;20995;-68
2021/12/15 04:53:06;;;;;;;35.98;17.00;;;;;;;-0.94;100.00;100295.38;1765940;81;20983;-68
2021/12/15 04:55:37;;;;;;;29.98;16.10;;;;;;;-0.92;100.00;100302.76;1766048;81;21038;-69
2021/12/15 04:58:05;;;;;;;30.85;15.18;;;;;;;-0.90;100.00;100302.81;1766048;81;20884;-68
2021/12/15 05:00:38;;;;;;;24.15;12.28;;;;;;;-0.90;100.00;100296.56;1766072;81;20951;-68
2021/12/15 05:03:06;;;;;;;22.65;11.90;;;;;;;-0.86;100.00;100295.92;1765700;81;21019;-69
2021/12/15 05:05:39;;;;;;;43.35;11.00;;;;;;;-0.81;100.00;100303.88;1766263;81;21015;-68
2021/12/15 05:08:10;;;;;;;25.68;12.93;;;;;;;-0.83;100.00;100295.98;1767478;81;21000;-68
2021/12/15 05:10:44;;;;;;;25.32;12.58;;;;;;;-0.87;100.00;100291.54;1766038;81;20927;-69
2021/12/15 05:13:12;;;;;;;36.28;17.00;;;;;;;-0.93;100.00;100292.97;1718864;81;21801;-68
2021/12/15 05:15:39;;;;;;;29.25;14.63;;;;;;;-0.96;100.00;100291.55;1767981;81;21483;-67
2021/12/15 05:18:08;;;;;;;24.72;11.85;;;;;;;-0.99;100.00;100296.06;1767617;81;20959;-67
2021/12/15 05:20:39;;;;;;;30.57;15.03;;;;;;;-1.01;100.00;100297.61;1766504;81;21007;-68
2021/12/15 05:23:11;;;;;;;27.48;14.73;;;;;;;-1.01;100.00;100299.51;1766034;81;21014;-67
2021/12/15 05:25:42;;;;;;;;;;;;;;;-1.01;100.00;100290.84;1770248;81;21897;-67
2021/12/15 05:28:10;;;;;;;26.10;13.38;;;;;;;-0.99;100.00;100292.80;1765965;81;20094;-68
2021/12/15 05:30:43;;;;;;;25.62;13.15;;;;;;;-0.99;100.00;100303.62;1765995;81;21493;-67
2021/12/15 05:33:11;;;;;;;26.87;14.83;;;;;;;-0.98;100.00;100299.05;1765964;81;21468;-67
2021/12/15 05:35:38;;;;;;;32.55;16.67;;;;;;;-0.97;100.00;100297.19;1766535;81;21456;-67
2021/12/15 05:38:12;;;;;;;29.57;16.60;;;;;;;-0.99;100.00;100300.92;1765918;81;21216;-68
2021/12/15 05:40:41;;;;;;;29.48;15.63;;;;;;;-0.99;100.00;100303.62;1766530;81;20975;-68
2021/12/15 05:43:08;;;;;;;39.73;14.78;;;;;;;-1.01;100.00;100304.92;1766122;81;21039;-68
2021/12/15 05:45:37;;;;;;;28.83;14.50;;;;;;;-1.00;100.00;100315.52;1765984;81;20979;-68
2021/12/15 05:48:08;;;;;;;26.70;13.15;;;;;;;-1.01;100.00;100317.90;1766172;81;20943;-67
2021/12/15 05:50:38;;;;;;;24.77;12.68;;;;;;;-1.00;100.00;100324.98;1763261;81;21111;-68
2021/12/15 05:53:07;;;;;;;19.27;11.40;;;;;;;-1.00;100.00;100324.98;1725716;82;21492;-68
2021/12/15 05:55:35;;;;;;;26.85;12.90;;;;;;;-1.01;100.00;100321.95;1745028;82;21063;-69
2021/12/15 05:58:04;;;;;;;27.82;14.68;;;;;;;-1.02;100.00;100328.44;1744998;82;21004;-69
2021/12/15 06:00:36;;;;;;;32.35;14.83;;;;;;;-0.99;100.00;100334.75;1751150;82;20873;-69
2021/12/15 06:03:05;;;;;;;27.22;12.25;;;;;;;-0.95;100.00;100337.00;1745231;82;21111;-68
2021/12/15 06:05:33;;;;;;;33.70;14.93;;;;;;;-0.97;100.00;100339.13;1750940;82;21405;-68
2021/12/15 06:08:04;;;;;;;32.58;15.13;;;;;;;-1.02;100.00;100337.91;1750639;82;20924;-68
2021/12/15 06:10:31;;;;;;;30.95;14.50;;;;;;;-1.04;100.00;100345.41;1745158;82;20988;-68
2021/12/15 06:12:59;;;;;;;29.40;13.90;;;;;;;-1.06;100.00;100343.48;1744993;82;20877;-68
2021/12/15 06:15:30;;;;;;;28.07;12.28;;;;;;;-1.04;100.00;100345.41;1745054;82;21130;-68
2021/12/15 06:18:02;;;;;;;24.72;13.10;;;;;;;-1.02;100.00;100351.44;1744946;82;20956;-66
2021/12/15 06:20:34;;;;;;;24.45;11.60;;;;;;;-1.00;100.00;100346.63;1745442;82;21406;-68
2021/12/15 06:23:09;;;;;;;21.27;11.18;;;;;;;-0.95;100.00;100351.37;1726144;82;21398;-67
2021/12/15 06:25:32;;;;;;;20.35;10.88;;;;;;;-0.93;100.00;100353.34;1745222;82;21433;-67
2021/12/15 06:28:04;;;;;;;17.02;9.83;;;;;;;-0.94;100.00;100350.34;1745091;82;21132;-67
2021/12/15 06:30:33;;;;;;;16.35;8.50;;;;;;;-0.95;100.00;100355.95;1744871;82;20837;-68
2021/12/15 06:33:03;;;;;;;17.25;10.32;;;;;;;-0.97;100.00;100360.23;1745088;82;20986;-67
2021/12/15 06:35:34;;;;;;;16.10;8.15;;;;;;;-1.01;100.00;100360.39;1744932;82;20936;-66
2021/12/15 06:38:05;;;;;;;11.57;7.47;;;;;;;-1.04;100.00;100361.64;1744875;82;20909;-68
2021/12/15 06:40:32;;;;;;;17.25;8.80;;;;;;;-1.05;100.00;100362.70;1725953;82;21043;-69
2021/12/15 06:43:01;;;;;;;13.95;7.65;;;;;;;-1.06;100.00;100363.77;1744954;82;20920;-69
2021/12/15 06:45:39;;;;;;;14.20;7.67;;;;;;;-1.07;100.00;100366.15;1745357;82;20908;-68
2021/12/15 06:59:03;;;;;;;12.23;7.15;;;;;;;-1.12;100.00;100370.05;1742401;81;21003;-68
2021/12/15 07:01:29;;;;;;;15.08;7.85;;;;;;;-1.15;100.00;100369.97;1742621;81;20928;-67
2021/12/15 07:03:58;;;;;;;13.25;6.87;;;;;;;-1.18;100.00;100366.88;1766434;81;20936;-67
2021/12/15 07:06:27;;;;;;;13.53;7.75;;;;;;;-1.18;100.00;100365.52;1766090;81;21468;-67
2021/12/15 07:08:53;;;;;;;16.23;7.92;;;;;;;-1.18;100.00;100365.02;1766060;81;20879;-68
2021/12/15 07:11:22;;;;;;;12.75;7.28;;;;;;;-1.16;100.00;100363.44;1742602;81;20950;-67
2021/12/15 07:13:53;;;;;;;10.20;6.35;;;;;;;-1.15;100.00;100369.97;1765461;81;20904;-68
2021/12/15 07:16:22;;;;;;;15.03;7.95;;;;;;;-1.16;100.00;100368.84;1766131;81;20923;-69
2021/12/15 07:19:06;;;;;;;14.25;8.08;;;;;;;-1.21;100.00;100370.84;1765982;81;21065;-68
2021/12/15 07:21:23;;;;;;;14.18;7.80;;;;;;;-1.20;100.00;100369.80;1739389;81;20948;-67
2021/12/15 07:23:51;;;;;;;12.25;7.15;;;;;;;-1.16;100.00;100375.06;1742298;81;21018;-69
2021/12/15 07:26:18;;;;;;;15.83;7.10;;;;;;;-1.13;100.00;100380.57;1766001;81;20900;-68
2021/12/15 07:28:46;;;;;;;11.25;6.35;;;;;;;-1.15;100.00;100379.95;1766454;81;21082;-68
2021/12/15 07:31:15;;;;;;;13.10;7.12;;;;;;;-1.17;100.00;100382.05;1766388;81;21531;-69
2021/12/15 07:33:45;;;;;;;12.37;6.58;;;;;;;-1.16;100.00;100388.59;1741837;81;21039;-69
2021/12/15 07:36:15;;;;;;;13.58;6.80;;;;;;;-1.11;100.00;100393.36;1742270;81;20955;-68
2021/12/15 07:38:45;;;;;;;12.90;6.87;;;;;;;-1.07;100.00;100395.07;1767621;81;20939;-68
2021/12/15 07:41:29;;;;;;;8.15;4.55;;;;;;;-1.04;100.00;100396.81;1766098;81;20884;-67
2021/12/15 07:43:55;;;;;;;5.30;3.20;;;;;;;-1.00;100.00;100400.75;1765934;81;21214;-68
2021/12/15 07:46:23;;;;;;;4.83;3.05;;;;;;;-1.01;100.00;100403.13;1766258;81;20983;-68
2021/12/15 07:48:52;;;;;;;5.35;2.65;;;;;;;-1.01;100.00;100408.55;1766093;81;20956;-68
2021/12/15 07:51:22;;;;;;;3.00;1.98;;;;;;;-0.97;100.00;100412.19;1766213;81;20991;-68
2021/12/15 07:53:49;;;;;;;7.25;3.50;;;;;;;-0.92;100.00;100416.41;1766046;81;20995;-68
2021/12/15 07:56:19;;;;;;;10.48;4.42;;;;;;;-0.83;100.00;100419.13;1766125;81;22181;-68
2021/12/15 07:58:48;;;;;;;5.40;3.42;;;;;;;-0.72;100.00;100420.81;1742111;81;21534;-67
2021/12/15 08:01:18;;;;;;;6.85;3.50;;;;;;;-0.76;100.00;100419.07;1766179;81;21013;-69
2021/12/15 08:03:51;;;;;;;10.10;4.92;;;;;;;-0.75;100.00;100421.55;1765981;81;47471;-68
2021/12/15 08:06:17;;;;;;;14.18;5.47;;;;;;;-0.76;100.00;100429.38;1766113;81;20892;-66
2021/12/15 08:08:44;;;;;;;11.65;6.60;;;;;;;-0.74;100.00;100423.23;1766053;81;21160;-68
2021/12/15 08:11:17;;;;;;;10.75;6.67;;;;;;;-0.79;100.00;100424.94;1766050;81;20880;-69
2021/12/15 08:13:47;;;;;;;12.93;7.45;;;;;;;-0.86;100.00;100419.58;1766096;81;20959;-69
2021/12/15 08:16:19;;;;;;;22.58;10.35;;;;;;;-0.86;100.00;100432.59;1766060;81;21535;-68
2021/12/15 08:18:49;;;;;;;11.28;6.20;;;;;;;-0.81;100.00;100430.56;1766084;81;20872;-68
2021/12/15 08:21:19;;;;;;;12.45;7.45;;;;;;;-0.80;100.00;100424.09;1742518;81;21147;-69
2021/12/15 08:23:46;;;;;;;10.70;6.33;;;;;;;-0.78;100.00;100427.41;1765985;81;20924;-69
2021/12/15 08:26:18;;;;;;;6.08;3.95;;;;;;;-0.79;100.00;100430.34;1766201;81;21038;-68
2021/12/15 08:28:47;;;;;;;8.13;4.50;;;;;;;-0.80;100.00;100432.77;1766472;81;21003;-67
2021/12/15 08:31:16;;;;;;;10.93;6.67;;;;;;;-0.83;100.00;100431.83;1742098;81;21090;-67
2021/12/15 08:33:44;;;;;;;7.50;4.53;;;;;;;-0.81;100.00;100444.10;1766089;81;21106;-69
2021/12/15 08:36:17;;;;;;;6.92;4.05;;;;;;;-0.83;100.00;100435.89;1742127;81;20923;-68
2021/12/15 08:38:47;;;;;;;6.53;3.77;;;;;;;-0.90;98.94;100431.37;1766115;81;20999;-68
2021/12/15 08:41:24;;;;;;;19.05;6.65;;;;;;;-0.91;99.27;100430.23;1742064;81;21504;-68
2021/12/15 08:43:52;;;;;;;13.05;6.00;;;;;;;-0.91;97.14;100430.23;1766305;81;20895;-67
2021/12/15 08:46:25;;;;;;;5.40;4.08;;;;;;;-0.93;97.56;100429.11;1742062;81;21040;-68
2021/12/15 08:48:52;;;;;;;5.42;3.50;;;;;;;-0.92;96.65;100428.59;1766408;81;20947;-69
2021/12/15 08:51:27;;;;;;;4.40;3.02;;;;;;;-0.91;97.19;100430.23;1762870;81;21023;-68
2021/12/15 08:53:51;;;;;;;7.72;3.80;;;;;;;-0.85;97.37;100434.75;1744008;82;20961;-68
2021/12/15 08:56:20;;;;;;;5.85;3.67;;;;;;;-0.82;96.88;100426.19;1744956;82;20984;-68
2021/12/15 08:58:49;;;;;;;7.95;4.60;;;;;;;-0.82;96.47;100426.19;1744949;82;21517;-68
2021/12/15 09:01:16;;;;;;;7.75;5.10;;;;;;;-0.81;96.12;100421.61;1700325;82;21008;-68
2021/12/15 09:03:43;;;;;;;6.15;4.70;;;;;;;-0.82;95.09;100416.72;1744924;82;20901;-68
2021/12/15 09:06:13;;;;;;;6.60;4.50;;;;;;;-0.82;94.98;100418.06;1745002;82;20936;-68
2021/12/15 09:08:44;;;;;;;13.20;6.85;;;;;;;-0.78;95.57;100416.59;1744874;82;20986;-68
2021/12/15 09:11:15;;;;;;;15.30;9.30;;;;;;;-0.72;94.70;100410.82;1725640;82;21038;-68
2021/12/15 09:13:45;;;;;;;16.32;9.50;;;;;;;-0.72;93.35;100407.27;1725566;82;20984;-67
2021/12/15 09:16:16;;;;;;;10.55;5.30;;;;;;;-0.74;94.18;100400.22;1744823;82;21454;-67
2021/12/15 09:18:48;;;;;;;9.08;5.30;;;;;;;-0.69;94.31;100405.47;1725571;82;21513;-67
2021/12/15 09:21:18;;;;;;;9.20;5.30;;;;;;;-0.71;94.38;100399.45;1725689;82;21015;-68
2021/12/15 09:23:51;;;;;;;6.45;3.45;;;;;;;-0.71;94.70;100405.70;1725715;82;21781;-66
2021/12/15 09:26:21;;;;;;;7.22;3.95;;;;;;;-0.74;94.15;100396.67;1745014;82;20951;-67
2021/12/15 09:28:51;;;;;;;6.40;3.75;;;;;;;-0.81;93.39;100397.25;1745186;82;20885;-68
2021/12/15 09:31:20;;;;;;;6.53;4.03;;;;;;;-0.92;93.36;100396.12;1744816;82;21726;-68
2021/12/15 09:33:54;;;;;;;9.35;5.45;;;;;;;-0.97;93.74;100397.30;1744860;82;21004;-69
2021/12/15 09:36:25;;;;;;;10.82;5.90;;;;;;;-1.01;93.51;100394.20;1745311;82;21144;-69
2021/12/15 09:38:57;;;;;;;8.23;5.37;;;;;;;-1.02;93.86;100397.43;1745389;82;20889;-68
2021/12/15 09:41:25;;;;;;;9.35;5.25;;;;;;;-1.04;92.95;100402.77;1744017;82;20961;-68
2021/12/15 09:44:04;;;;;;;10.98;5.37;;;;;;;-1.10;93.16;100400.42;1745012;82;21631;-66
2021/12/15 09:46:41;;;;;;;9.60;5.33;;;;;;;-1.07;93.70;100397.78;1744919;82;20967;-69
2021/12/15 10:03:13;;;;;;;9.20;4.05;;;;;;;-1.01;93.06;100395.56;1761391;81;21539;-68
2021/12/15 10:19:29;;;;;;;5.97;3.95;;;;;;;-0.93;92.61;100380.91;1753648;81;20983;-66
2021/12/15 10:22:09;;;;;;;7.10;4.62;;;;;;;-0.93;92.75;100380.39;1780959;80;21012;-68
2021/12/15 10:25:15;;;;;;;7.83;5.17;;;;;;;-0.95;92.45;100380.30;1769378;81;20983;-67
2021/12/15 10:28:05;;;;;;;9.20;6.00;;;;;;;-1.02;91.72;100375.78;1817214;78;20998;-67
2021/12/15 10:30:40;;;;;;;9.38;5.17;;;;;;;-1.12;91.93;100376.80;1817191;79;21531;-68
2021/12/15 10:33:38;;;;;;;11.00;5.85;;;;;;;-1.11;92.18;100371.72;1817152;79;21449;-69
2021/12/15 10:36:14;;;;;;;8.50;5.33;;;;;;;-1.16;91.69;100372.36;1809981;78;20972;-66
2021/12/15 10:38:52;;;;;;;12.80;7.15;;;;;;;-1.17;91.77;100363.95;1794428;78;21060;-68
2021/12/15 10:41:28;;;;;;;11.38;6.80;;;;;;;-1.23;91.72;100369.70;1790392;79;21016;-67
2021/12/15 10:44:06;;;;;;;10.78;6.25;;;;;;;-1.23;91.87;100370.25;1784086;79;21737;-68
2021/12/15 10:46:43;;;;;;;10.23;6.58;;;;;;;-1.26;91.91;100368.80;1788705;78;21027;-67
2021/12/15 10:49:24;;;;;;;10.88;6.65;;;;;;;-1.25;91.70;100374.53;1789880;79;20961;-67
2021/12/15 10:52:02;;;;;;;15.80;8.18;;;;;;;-1.32;91.71;100367.50;1800194;79;20984;-69
2021/12/15 10:54:49;;;;;;;11.25;6.42;;;;;;;-1.31;91.92;100369.98;1801512;79;21044;-68
2021/12/15 10:57:22;;;;;;;12.43;6.90;;;;;;;-1.29;91.89;100371.95;1792089;79;21049;-67
2021/12/15 10:59:52;;;;;;;9.55;5.33;;;;;;;-1.27;91.95;100363.09;1799434;78;21009;-68
2021/12/15 11:02:27;;;;;;;10.18;6.28;;;;;;;-1.20;91.85;100360.86;1795865;79;20971;-66
2021/12/15 11:05:15;;;;;;;13.90;7.62;;;;;;;-1.24;91.25;100364.00;1788566;79;21097;-65
2021/12/15 11:07:48;;;;;;;11.68;6.17;;;;;;;-1.26;91.32;100361.20;1793324;79;21134;-66
2021/12/15 11:10:35;;;;;;;12.43;5.90;;;;;;;-1.30;90.80;100358.65;1784050;79;21133;-64
2021/12/15 11:13:09;;;;;;;10.18;6.12;;;;;;;-1.31;90.91;100357.81;1788496;79;21059;-66
2021/12/15 11:15:46;;;;;;;11.83;6.65;;;;;;;-1.28;90.92;100368.19;1792759;79;20993;-66
2021/12/15 11:18:26;;;;;;;10.70;6.10;;;;;;;-1.25;90.69;100364.23;1798319;79;20948;-68
2021/12/15 11:21:07;;;;;;;16.97;8.35;;;;;;;-1.23;90.75;100364.84;1757481;80;21053;-67
2021/12/15 11:23:34;;;;;;;11.97;5.80;;;;;;;-1.17;90.86;100366.66;1797664;79;21063;-68
2021/12/15 11:26:07;;;;;;;10.25;5.80;;;;;;;-1.08;90.53;100362.31;1772522;79;20934;-70
2021/12/15 11:28:39;;;;;;;11.57;5.75;;;;;;;-1.09;90.15;100366.89;1772887;79;21026;-67
2021/12/15 11:31:30;;;;;;;8.33;5.67;;;;;;;-1.10;90.00;100362.54;1797478;79;21484;-68
2021/12/15 11:34:02;;;;;;;8.80;4.83;;;;;;;-1.11;89.54;100368.47;1797564;79;20892;-67
2021/12/15 11:36:44;;;;;;;8.08;5.22;;;;;;;-1.20;88.47;100363.05;1793971;79;21550;-68
2021/12/15 11:39:21;;;;;;;6.33;4.15;;;;;;;-1.36;87.40;100368.45;1753153;81;21483;-67
2021/12/15 11:41:51;;;;;;;6.30;4.72;;;;;;;-1.50;87.85;100366.40;1788204;79;21102;-68
2021/12/15 11:44:21;;;;;;;5.40;3.75;;;;;;;-1.55;88.01;100363.52;1743653;81;21004;-66
2021/12/15 11:47:02;;;;;;;10.15;5.05;;;;;;;-1.55;88.32;100362.17;1784590;79;21568;-65
2021/12/15 11:49:35;;;;;;;11.53;5.87;;;;;;;-1.53;88.32;100369.00;1788480;79;21142;-66
2021/12/15 11:52:13;;;;;;;8.58;6.67;;;;;;;-1.49;88.41;100363.47;1786942;78;21039;-66
2021/12/15 11:54:48;;;;;;;8.15;4.58;;;;;;;-1.51;87.62;100366.91;1772351;80;21084;-66
2021/12/15 11:57:29;;;;;;;9.33;6.20;;;;;;;-1.61;87.26;100368.75;1744857;81;21108;-68
2021/12/15 12:00:10;;;;;;;8.80;5.55;;;;;;;-1.75;87.28;100368.52;1717845;81;20995;-66
2021/12/15 12:02:42;;;;;;;5.78;4.55;;;;;;;-1.82;87.75;100361.80;1754696;81;21155;-66
2021/12/15 12:05:27;;;;;;;5.97;3.87;;;;;;;-1.81;88.07;100368.87;1757983;81;21539;-67
2021/12/15 12:08:03;;;;;;;7.10;5.05;;;;;;;-1.83;88.03;100368.25;1698073;83;21497;-67
2021/12/15 12:10:50;;;;;;;7.03;5.25;;;;;;;-1.88;88.09;100368.08;1753107;81;21067;-66
2021/12/15 12:13:30;;;;;;;12.40;6.97;;;;;;;-1.91;88.22;100367.97;1723117;83;21055;-68
2021/12/15 12:16:04;;;;;;;6.90;4.03;;;;;;;-1.86;88.52;100367.34;1759166;81;21046;-68
2021/12/15 12:18:32;;;;;;;9.38;4.45;;;;;;;-1.85;88.43;100371.69;1760943;81;20878;-68
2021/12/15 12:21:06;;;;;;;7.10;4.17;;;;;;;-1.82;88.41;100371.77;1739447;81;21485;-68
2021/12/15 12:23:35;;;;;;;14.70;8.13;;;;;;;-1.81;88.17;100370.22;1761189;81;20942;-68
2021/12/15 12:26:10;;;;;;;12.37;7.42;;;;;;;-1.83;88.29;100373.66;1760476;81;20981;-68
2021/12/15 12:28:41;;;;;;;12.78;5.90;;;;;;;-1.81;88.44;100372.92;1761269;81;21153;-68
2021/12/15 12:31:15;;;;;;;23.83;10.03;;;;;;;-1.78;88.26;100380.59;1761469;81;21001;-67
2021/12/15 12:33:41;;;;;;;12.30;7.28;;;;;;;-1.84;88.49;100384.98;1739130;81;21052;-67
2021/12/15 12:36:13;;;;;;;8.83;5.05;;;;;;;-1.88;88.74;100383.77;1739971;81;21497;-67
2021/12/15 12:38:48;;;;;;;14.15;6.30;;;;;;;-1.92;88.91;100372.23;1761497;81;20920;-69
2021/12/15 12:41:20;;;;;;;13.98;6.67;;;;;;;-1.96;89.30;100376.73;1761203;81;21076;-68
2021/12/15 12:43:54;;;;;;;15.63;7.45;;;;;;;-1.92;89.51;100380.34;1731271;82;21031;-67
2021/12/15 12:46:33;;;;;;;12.55;6.90;;;;;;;-1.90;89.65;100375.05;1761107;80;20941;-68